createdAt,value
2019-04-22T00:00:45.379Z,19.87
2019-04-22T00:03:18.410Z,18.07
2019-04-22T00:06:05.284Z,21.77
2019-04-22T00:08:44.512Z,30.35
2019-04-22T00:11:18.165Z,26.90
2019-04-22T00:13:53.871Z,28.65
2019-04-22T00:16:27.906Z,20.72
2019-04-22T00:21:26.318Z,25.80
2019-04-22T00:23:57.936Z,32.70
2019-04-22T00:26:29.371Z,31.23
2019-04-22T00:29:20.816Z,24.87
2019-04-22T00:31:35.800Z,22.22
2019-04-22T00:34:06.720Z,24.18
2019-04-22T00:36:43.784Z,20.68
2019-04-22T00:39:18.454Z,22.02
2019-04-22T00:41:43.797Z,24.45
2019-04-22T00:44:21.978Z,23.57
2019-04-22T00:46:54.199Z,31.17
2019-04-22T00:50:04.119Z,28.40
2019-04-22T00:52:01.093Z,26.17
2019-04-22T00:54:21.393Z,23.90
2019-04-22T00:56:59.228Z,32.73
2019-04-22T00:59:25.115Z,27.67
2019-04-22T01:02:02.244Z,38.33
2019-04-22T01:04:34.993Z,30.60
2019-04-22T01:07:09.335Z,29.98
2019-04-22T01:09:43.241Z,32.88
2019-04-22T01:12:07.236Z,28.00
2019-04-22T01:14:44.338Z,26.75
2019-04-22T01:17:11.614Z,26.30
2019-04-22T01:19:50.952Z,43.33
2019-04-22T01:22:17.525Z,34.63
2019-04-22T01:24:48.603Z,26.93
2019-04-22T01:27:12.996Z,31.15
2019-04-22T01:29:42.371Z,27.65
2019-04-22T01:32:00.380Z,40.43
2019-04-22T01:34:49.316Z,29.87
2019-04-22T01:37:27.017Z,38.65
2019-04-22T01:40:04.496Z,49.13
2019-04-22T01:42:35.732Z,43.23
2019-04-22T01:45:12.320Z,35.65
2019-04-22T01:47:40.159Z,46.55
2019-04-22T01:50:08.082Z,41.75
2019-04-22T01:52:39.956Z,42.20
2019-04-22T01:55:22.616Z,46.33
2019-04-22T01:57:43.018Z,43.13
2019-04-22T02:00:05.031Z,52.00
2019-04-22T02:02:49.246Z,51.48
2019-04-22T02:05:18.971Z,56.10
2019-04-22T02:07:49.244Z,34.90
2019-04-22T02:10:29.301Z,41.63
2019-04-22T02:12:55.414Z,45.67
2019-04-22T02:15:23.765Z,42.23
2019-04-22T02:18:02.759Z,42.62
2019-04-22T02:20:31.155Z,39.18
2019-04-22T02:25:44.748Z,47.80
2019-04-22T02:28:16.486Z,42.03
2019-04-22T02:30:50.407Z,35.40
2019-04-22T02:33:40.304Z,35.65
2019-04-22T02:38:35.694Z,40.70
2019-04-22T02:41:08.763Z,45.98
2019-04-22T02:43:34.018Z,34.20
2019-04-22T02:46:12.922Z,31.33
2019-04-22T02:48:53.282Z,39.33
2019-04-22T02:51:02.108Z,36.30
2019-04-22T02:54:12.255Z,42.13
2019-04-22T02:56:13.326Z,39.08
2019-04-22T02:58:47.032Z,45.95
2019-04-22T03:04:00.903Z,45.70
2019-04-22T03:06:16.276Z,50.55
2019-04-22T03:09:01.367Z,49.70
2019-04-22T03:16:26.663Z,48.85
2019-04-22T03:21:18.510Z,54.73
2019-04-22T03:24:15.801Z,55.70
2019-04-22T03:26:27.545Z,54.53
2019-04-22T03:41:48.249Z,54.83
2019-04-22T03:44:18.866Z,67.03
2019-04-22T03:46:52.838Z,52.65
2019-04-22T03:49:30.778Z,52.40
2019-04-22T03:52:03.012Z,41.80
2019-04-22T03:54:29.197Z,42.58
2019-04-22T03:59:28.994Z,53.05
2019-04-22T04:01:52.955Z,36.48
2019-04-22T04:04:37.113Z,40.48
2019-04-22T04:09:35.402Z,50.12
2019-04-22T04:12:01.957Z,44.08
2019-04-22T04:17:06.356Z,47.98
2019-04-22T04:22:14.383Z,35.98
2019-04-22T04:32:27.329Z,29.55
2019-04-22T04:35:13.122Z,30.60
2019-04-22T04:40:10.084Z,39.42
2019-04-22T04:42:35.210Z,44.88
2019-04-22T04:45:11.402Z,31.73
2019-04-22T04:49:56.978Z,33.98
2019-04-22T04:52:39.637Z,35.03
2019-04-22T04:55:14.512Z,35.17
2019-04-22T04:57:57.427Z,45.08
2019-04-22T05:02:48.967Z,31.80
2019-04-22T05:20:26.665Z,37.15
2019-04-22T05:22:44.583Z,40.20
2019-04-22T05:25:28.568Z,38.67
2019-04-22T05:27:46.843Z,23.47
2019-04-22T05:30:32.678Z,25.35
2019-04-22T05:37:58.051Z,26.25
2019-04-22T05:40:23.018Z,27.90
2019-04-22T05:42:57.159Z,43.42
2019-04-22T05:45:25.207Z,30.48
2019-04-22T05:47:57.855Z,24.05
2019-04-22T05:50:27.025Z,18.20
2019-04-22T05:53:03.412Z,23.20
2019-04-22T05:55:42.014Z,16.95
2019-04-22T05:58:10.380Z,14.18
2019-04-22T06:01:13.181Z,14.33
2019-04-22T06:03:12.401Z,19.90
2019-04-22T06:06:00.879Z,17.45
2019-04-22T06:13:17.974Z,13.43
2019-04-22T06:15:53.118Z,17.40
2019-04-22T06:18:31.875Z,14.47
2019-04-22T06:20:59.448Z,14.55
2019-04-22T06:23:35.948Z,18.25
2019-04-22T06:26:14.443Z,14.83
2019-04-22T06:28:46.701Z,23.80
2019-04-22T06:31:10.785Z,15.55
2019-04-22T06:33:40.529Z,12.80
2019-04-22T06:36:08.041Z,14.20
2019-04-22T06:38:40.449Z,14.98
2019-04-22T06:41:14.004Z,18.48
2019-04-22T06:43:41.900Z,16.07
2019-04-22T06:46:22.433Z,15.43
2019-04-22T06:51:20.194Z,13.13
2019-04-22T06:53:48.092Z,15.48
2019-04-22T06:56:37.096Z,14.95
2019-04-22T07:11:23.715Z,17.77
2019-04-22T07:19:24.972Z,16.75
2019-04-22T07:21:37.118Z,21.33
2019-04-22T07:26:42.422Z,15.70
2019-04-22T07:31:44.421Z,26.23
2019-04-22T07:34:24.054Z,21.95
2019-04-22T07:36:54.764Z,25.62
2019-04-22T07:39:15.579Z,22.25
2019-04-22T07:42:05.245Z,25.20
2019-04-22T07:44:25.850Z,32.45
2019-04-22T07:47:00.928Z,28.27
2019-04-22T07:49:26.667Z,31.35
2019-04-22T07:51:55.839Z,35.23
2019-04-22T07:57:07.240Z,28.75
2019-04-22T07:59:30.412Z,26.20
2019-04-22T08:02:01.943Z,23.75
2019-04-22T08:07:06.278Z,24.35
2019-04-22T08:09:47.569Z,17.23
2019-04-22T08:14:42.183Z,28.20
2019-04-22T08:17:41.515Z,22.67
2019-04-22T08:19:43.031Z,19.77
2019-04-22T08:22:14.364Z,17.37
2019-04-22T08:24:47.317Z,16.82
2019-04-22T08:27:15.352Z,17.55
2019-04-22T08:29:59.779Z,16.37
2019-04-22T08:34:47.398Z,17.27
2019-04-22T08:40:05.708Z,13.50
2019-04-22T08:42:36.560Z,16.17
2019-04-22T08:47:34.518Z,14.55
2019-04-22T08:52:36.980Z,15.15
2019-04-22T08:57:55.724Z,19.62
2019-04-22T09:00:07.158Z,27.45
2019-04-22T09:05:33.974Z,13.05
2019-04-22T09:10:17.156Z,15.70
2019-04-22T09:15:24.711Z,19.52
2019-04-22T09:17:56.041Z,12.28
2019-04-22T09:20:23.390Z,15.80
2019-04-22T09:25:26.607Z,26.45
2019-04-22T09:30:27.490Z,17.32
2019-04-22T09:33:02.778Z,15.60
2019-04-22T09:35:31.812Z,14.85
2019-04-22T09:38:12.739Z,17.98
2019-04-22T09:40:47.048Z,17.73
2019-04-22T09:43:02.418Z,177.35
2019-04-22T09:48:08.772Z,20.20
2019-04-22T09:50:43.219Z,18.02
2019-04-22T09:55:44.682Z,22.82
2019-04-22T10:00:55.869Z,18.60
2019-04-22T10:03:19.924Z,19.07
2019-04-22T10:05:52.112Z,17.75
2019-04-22T10:08:24.342Z,12.82
2019-04-22T10:11:00.772Z,18.07
2019-04-22T10:13:32.012Z,20.20
2019-04-22T10:15:59.030Z,12.73
2019-04-22T10:18:32.428Z,10.65
2019-04-22T10:23:33.062Z,24.07
2019-04-22T10:26:04.845Z,43.10
2019-04-22T10:28:40.104Z,12.35
2019-04-22T10:31:14.529Z,9.78
2019-04-22T10:33:31.533Z,12.00
2019-04-22T10:35:45.616Z,14.20
2019-04-22T10:38:16.617Z,24.82
2019-04-22T10:40:46.885Z,14.37
2019-04-22T10:43:17.073Z,21.90
2019-04-22T10:45:48.098Z,25.27
2019-04-22T10:48:18.643Z,19.27
2019-04-22T10:50:48.926Z,15.60
2019-04-22T10:53:19.686Z,14.65
2019-04-22T10:55:51.552Z,16.25
2019-04-22T10:58:22.879Z,10.85
2019-04-22T11:00:54.294Z,13.75
2019-04-22T11:05:54.919Z,13.15
2019-04-22T11:08:37.902Z,9.60
2019-04-22T11:11:12.379Z,12.35
2019-04-22T11:13:28.505Z,12.90
2019-04-22T11:15:58.588Z,11.33
2019-04-22T11:18:29.610Z,12.50
2019-04-22T11:20:59.881Z,16.32
2019-04-22T11:23:29.997Z,15.78
2019-04-22T11:26:00.000Z,14.58
2019-04-22T11:28:31.715Z,13.13
2019-04-22T11:33:32.664Z,12.05
2019-04-22T11:36:03.853Z,13.25
2019-04-22T11:38:40.355Z,12.60
2019-04-22T11:41:07.244Z,18.57
2019-04-22T11:43:38.965Z,11.38
2019-04-22T11:46:11.474Z,16.80
2019-04-22T11:48:43.001Z,27.13
2019-04-22T11:51:13.999Z,15.75
2019-04-22T11:53:45.079Z,13.10
2019-04-22T11:56:16.638Z,11.43
2019-04-22T12:01:17.269Z,16.35
2019-04-22T12:03:47.501Z,14.58
2019-04-22T12:06:18.035Z,14.90
2019-04-22T12:08:49.921Z,12.70
2019-04-22T12:11:20.682Z,14.98
2019-04-22T12:13:51.828Z,11.22
2019-04-22T12:16:23.324Z,18.05
2019-04-22T12:18:53.561Z,12.33
2019-04-22T12:21:24.180Z,10.80
2019-04-22T12:23:55.011Z,14.60
2019-04-22T12:26:26.919Z,15.37
2019-04-22T12:31:27.676Z,15.80
2019-04-22T12:33:59.196Z,14.50
2019-04-22T12:38:59.721Z,16.45
2019-04-22T12:41:31.100Z,13.03
2019-04-22T12:44:03.150Z,11.53
2019-04-22T12:49:02.688Z,19.05
2019-04-22T12:51:51.504Z,17.67
2019-04-22T12:54:21.599Z,14.47
2019-04-22T12:56:51.793Z,13.98
2019-04-22T12:59:23.481Z,15.83
2019-04-22T13:01:55.105Z,14.10
2019-04-22T13:04:25.501Z,18.90
2019-04-22T13:06:57.693Z,16.77
2019-04-22T13:09:29.321Z,22.85
2019-04-22T13:12:01.169Z,10.32
2019-04-22T13:14:32.780Z,15.55
2019-04-22T13:17:04.018Z,12.85
2019-04-22T13:19:36.003Z,11.05
2019-04-22T13:24:37.213Z,9.38
2019-04-22T13:27:08.791Z,12.70
2019-04-22T13:29:39.244Z,14.43
2019-04-22T13:32:10.826Z,16.10
2019-04-22T13:34:46.544Z,16.02
2019-04-22T13:37:13.022Z,11.00
2019-04-22T13:39:43.250Z,13.93
2019-04-22T13:42:18.008Z,15.58
2019-04-22T13:44:46.165Z,13.43
2019-04-22T13:47:34.983Z,13.95
2019-04-22T13:50:27.884Z,11.68
2019-04-22T13:55:16.211Z,14.47
2019-04-22T13:57:41.488Z,15.38
2019-04-22T13:59:59.847Z,11.12
2019-04-22T14:02:34.760Z,13.60
2019-04-22T14:05:06.546Z,13.15
2019-04-22T14:07:37.060Z,15.58
2019-04-22T14:10:08.661Z,12.53
2019-04-22T14:12:39.102Z,13.05
2019-04-22T14:15:09.999Z,15.98
2019-04-22T14:17:41.020Z,12.13
2019-04-22T14:20:11.275Z,15.75
2019-04-22T14:22:41.497Z,14.83
2019-04-22T14:25:12.684Z,15.48
2019-04-22T14:27:51.361Z,12.60
2019-04-22T14:32:45.793Z,19.30
2019-04-22T14:35:16.169Z,13.65
2019-04-22T14:37:46.242Z,12.43
2019-04-22T14:40:18.315Z,10.20
2019-04-22T14:43:10.310Z,11.35
2019-04-22T14:45:52.265Z,15.58
2019-04-22T14:50:47.013Z,19.42
2019-04-22T14:53:19.552Z,13.68
2019-04-22T14:57:57.083Z,18.90
2019-04-22T15:00:27.681Z,10.65
2019-04-22T15:02:59.603Z,20.37
2019-04-22T15:05:30.300Z,15.70
2019-04-22T15:08:01.304Z,14.05
2019-04-22T15:10:31.833Z,10.28
2019-04-22T15:13:03.071Z,16.70
2019-04-22T15:15:47.355Z,23.55
2019-04-22T15:18:26.460Z,11.95
2019-04-22T15:21:04.965Z,17.48
2019-04-22T15:23:35.079Z,13.85
2019-04-22T15:26:06.399Z,16.93
2019-04-22T15:28:37.453Z,17.35
2019-04-22T15:31:09.019Z,16.43
2019-04-22T15:33:41.685Z,15.70
2019-04-22T15:36:12.365Z,18.37
2019-04-22T15:38:42.417Z,16.48
2019-04-22T15:41:12.585Z,18.62
2019-04-22T15:43:43.903Z,18.02
2019-04-22T15:46:14.277Z,18.98
2019-04-22T15:48:44.341Z,18.73
2019-04-22T15:51:16.495Z,19.77
2019-04-22T15:53:47.564Z,20.08
2019-04-22T15:56:18.779Z,17.03
2019-04-22T15:58:49.009Z,18.42
2019-04-22T16:01:25.951Z,24.67
2019-04-22T16:03:52.433Z,27.62
2019-04-22T16:06:24.002Z,15.43
2019-04-22T16:08:54.164Z,19.75
2019-04-22T16:11:24.212Z,11.40
2019-04-22T16:13:54.773Z,16.95
2019-04-22T16:16:25.309Z,23.32
2019-04-22T16:18:56.229Z,16.20
2019-04-22T16:21:33.819Z,16.57
2019-04-22T16:24:00.362Z,27.70
2019-04-22T16:26:48.563Z,22.48
2019-04-22T16:29:19.219Z,24.35
2019-04-22T16:31:49.656Z,22.70
2019-04-22T16:34:21.524Z,22.50
2019-04-22T16:36:52.721Z,28.32
2019-04-22T16:39:22.969Z,19.77
2019-04-22T16:41:53.095Z,31.23
2019-04-22T16:44:24.756Z,28.65
2019-04-22T16:46:55.336Z,24.67
2019-04-22T16:49:27.710Z,26.30
2019-04-22T16:51:58.460Z,24.77
2019-04-22T16:54:29.017Z,28.98
2019-04-22T16:57:01.762Z,23.35
2019-04-22T16:59:32.760Z,31.57
2019-04-22T17:02:08.490Z,26.93
2019-04-22T17:04:49.009Z,23.18
2019-04-22T17:07:20.354Z,29.00
2019-04-22T17:09:52.042Z,42.62
2019-04-22T17:12:25.137Z,39.53
2019-04-22T17:15:02.750Z,45.73
2019-04-22T17:17:30.668Z,74.22
2019-04-22T17:22:31.440Z,147.20
2019-04-22T17:25:02.729Z,158.57
2019-04-22T17:27:34.550Z,171.35
2019-04-22T17:30:06.645Z,111.00
2019-04-22T17:35:08.330Z,83.90
2019-04-22T17:37:39.592Z,110.22
2019-04-22T17:40:31.624Z,130.95
2019-04-22T17:43:02.676Z,155.95
2019-04-22T17:45:49.212Z,162.55
2019-04-22T17:48:43.127Z,173.17
2019-04-22T17:51:22.618Z,163.90
2019-04-22T17:53:54.720Z,92.53
2019-04-22T17:56:21.560Z,58.70
2019-04-22T17:58:51.276Z,54.30
2019-04-22T18:01:23.971Z,53.63
2019-04-22T18:03:42.402Z,42.43
2019-04-22T18:06:25.995Z,51.53
2019-04-22T18:09:01.906Z,82.80
2019-04-22T18:11:39.711Z,75.78
2019-04-22T18:14:11.707Z,87.67
2019-04-22T18:16:40.376Z,66.45
2019-04-22T18:19:05.551Z,74.97
2019-04-22T18:21:36.186Z,64.30
2019-04-22T18:26:45.881Z,66.53
2019-04-22T18:29:14.399Z,51.15
2019-04-22T18:31:38.580Z,58.08
2019-04-22T18:34:09.771Z,58.78
2019-04-22T18:36:40.380Z,48.63
2019-04-22T18:39:22.588Z,58.10
2019-04-22T18:41:52.058Z,79.42
2019-04-22T18:44:31.055Z,63.92
2019-04-22T18:46:56.381Z,43.28
2019-04-22T18:49:29.546Z,59.08
2019-04-22T18:52:05.766Z,46.30
2019-04-22T18:54:36.206Z,80.03
2019-04-22T18:57:09.913Z,79.25
2019-04-22T18:59:31.265Z,144.47
2019-04-22T19:02:01.444Z,113.83
2019-04-22T19:04:39.381Z,98.12
2019-04-22T19:07:31.095Z,66.85
2019-04-22T19:10:06.236Z,64.65
2019-04-22T19:12:28.655Z,64.95
2019-04-22T19:15:01.766Z,40.85
2019-04-22T19:20:20.687Z,51.05
2019-04-22T19:22:36.016Z,57.60
2019-04-22T19:24:58.370Z,66.07
2019-04-22T19:27:33.456Z,53.80
2019-04-22T19:30:12.271Z,44.75
2019-04-22T19:32:38.591Z,42.53
2019-04-22T19:35:11.465Z,46.63
2019-04-22T19:37:39.936Z,49.30
2019-04-22T19:40:17.601Z,38.88
2019-04-22T19:42:51.789Z,43.83
2019-04-22T19:45:17.514Z,47.73
2019-04-22T19:47:59.753Z,47.40
2019-04-22T19:50:24.588Z,41.28
2019-04-22T19:52:59.439Z,57.30
2019-04-22T19:55:29.446Z,67.55
2019-04-22T19:57:59.638Z,57.48
2019-04-22T20:00:34.013Z,64.60
2019-04-22T20:03:50.893Z,51.35
2019-04-22T20:06:02.718Z,49.85
2019-04-22T20:08:30.694Z,53.02
2019-04-22T20:11:08.662Z,59.05
2019-04-22T20:13:42.758Z,54.88
2019-04-22T20:21:10.788Z,34.63
2019-04-22T20:23:34.913Z,45.92
2019-04-22T20:26:07.360Z,33.48
2019-04-22T20:28:46.664Z,37.53
2019-04-22T20:31:22.091Z,40.10
2019-04-22T20:33:56.291Z,33.78
2019-04-22T20:36:51.031Z,45.55
2019-04-22T20:38:56.563Z,32.98
2019-04-22T20:41:30.389Z,43.05
2019-04-22T20:44:06.549Z,53.15
2019-04-22T20:46:33.058Z,38.53
2019-04-22T20:49:05.001Z,40.73
2019-04-22T20:51:48.760Z,28.75
2019-04-22T20:54:07.445Z,31.82
2019-04-22T20:56:37.289Z,34.13
2019-04-22T20:59:08.654Z,33.35
2019-04-22T21:01:47.730Z,34.92
2019-04-22T21:04:00.933Z,35.83
2019-04-22T21:06:42.798Z,50.20
2019-04-22T21:09:20.972Z,42.58
2019-04-22T21:11:48.305Z,56.70
2019-04-22T21:14:20.069Z,39.65
2019-04-22T21:16:56.326Z,47.43
2019-04-22T21:19:38.640Z,40.78
2019-04-22T21:22:03.243Z,30.92
2019-04-22T21:24:33.016Z,37.48
2019-04-22T21:27:08.614Z,32.85
2019-04-22T21:29:30.447Z,36.70
2019-04-22T21:32:09.064Z,45.75
2019-04-22T21:34:47.631Z,39.45
2019-04-22T21:37:16.070Z,33.83
2019-04-22T21:39:36.351Z,33.02
2019-04-22T21:42:12.660Z,30.97
2019-04-22T21:44:39.767Z,29.60
2019-04-22T21:47:20.512Z,28.07
2019-04-22T21:49:54.757Z,28.20
2019-04-22T21:52:26.076Z,28.00
2019-04-22T21:54:59.656Z,35.25
2019-04-22T21:57:35.704Z,35.65
2019-04-22T22:00:17.039Z,35.55
2019-04-22T22:02:50.308Z,29.32
2019-04-22T22:05:07.529Z,32.73
2019-04-22T22:07:27.640Z,39.42
2019-04-22T22:10:16.294Z,32.58
2019-04-22T22:12:48.749Z,26.87
2019-04-22T22:15:22.648Z,40.03
2019-04-22T22:17:48.657Z,45.28
2019-04-22T22:20:21.724Z,57.65
2019-04-22T22:23:00.035Z,66.22
2019-04-22T22:25:26.553Z,48.68
2019-04-22T22:27:53.858Z,44.53
2019-04-22T22:33:05.975Z,38.65
2019-04-22T22:35:37.279Z,30.15
2019-04-22T22:38:06.764Z,45.70
2019-04-22T22:40:23.349Z,47.65
2019-04-22T22:42:53.163Z,42.80
2019-04-22T22:45:32.616Z,38.23
2019-04-22T22:48:21.551Z,30.92
2019-04-22T22:50:43.202Z,33.73
2019-04-22T22:53:32.662Z,36.83
2019-04-22T22:55:47.686Z,36.70
2019-04-22T22:58:24.105Z,46.42
2019-04-22T23:00:52.720Z,41.45
2019-04-22T23:03:47.539Z,47.03
2019-04-22T23:05:56.895Z,45.88
2019-04-22T23:08:32.527Z,44.93
2019-04-22T23:13:49.955Z,40.90
2019-04-22T23:15:58.416Z,49.80
2019-04-22T23:18:16.227Z,41.18
2019-04-22T23:20:48.366Z,38.42
2019-04-22T23:23:40.841Z,42.40
2019-04-22T23:26:11.908Z,46.58
2019-04-22T23:28:50.924Z,43.42
2019-04-22T23:31:25.040Z,41.58
2019-04-22T23:34:02.907Z,42.88
2019-04-22T23:36:48.141Z,50.55
2019-04-22T23:39:29.398Z,51.85
2019-04-22T23:41:58.473Z,63.25
2019-04-22T23:44:25.346Z,48.08
2019-04-22T23:46:56.329Z,60.80
2019-04-22T23:49:26.736Z,57.27
2019-04-22T23:52:20.818Z,52.08
2019-04-22T23:54:38.940Z,57.25
2019-04-22T23:57:00.151Z,58.17
